CHX38 EDDC-EDDC

Flight info

Callsign CHX38
Flight time 0h 3m
Altitude
Route
Aircraft EC45

Departure

Time 2026-05-07 19:06
Airport Dresden Airport (EDDC)

Arrival

Time 2026-05-07 19:10
Airport Dresden Airport (EDDC)
Time Latitude Longitude Altitude Speed Heading
2026-05-07 18:31 51.13334 13.77314 707 ft 0 kts 189°
2026-05-07 19:02 51.13333 13.77316 707 ft 0 kts 242°
2026-05-07 19:02 51.13351 13.77277 723 ft 5 kts 258°
2026-05-07 19:02 51.13309 13.77213 711 ft 3 kts 227°
2026-05-07 19:03 51.13292 13.77196 700 ft 0 kts 226°
2026-05-07 19:04 51.13288 13.77196 727 ft 4 kts 224°
2026-05-07 19:05 51.13106 13.77275 948 ft 47 kts 121°
2026-05-07 19:05 51.13012 13.78028 1105 ft 88 kts 83°
2026-05-07 19:05 51.13070 13.79179 1016 ft 115 kts 79°
2026-05-07 19:05 51.13179 13.80450 1077 ft 115 kts 78°
2026-05-07 19:06 51.13332 13.81691 1176 ft 119 kts 74°
2026-05-07 19:06 51.13741 13.84211 1396 ft 114 kts 71°
2026-05-07 19:06 51.14017 13.85490 1273 ft 129 kts 65°
2026-05-07 19:07 51.14397 13.86781 1274 ft 127 kts 60°
2026-05-07 19:07 51.14839 13.87950 1377 ft 120 kts 53°
2026-05-07 19:07 51.15372 13.88976 1343 ft 122 kts 47°
2026-05-07 19:07 51.15926 13.89961 1423 ft 117 kts 46°
2026-05-07 19:08 51.16438 13.90995 1415 ft 123 kts 59°
2026-05-07 19:08 51.16684 13.92302 1434 ft 122 kts 79°
2026-05-07 19:08 51.16600 13.93598 1596 ft 115 kts 104°
2026-05-07 19:08 51.16385 13.94803 1732 ft 111 kts 102°
2026-05-07 19:09 51.16144 13.95996 1743 ft 115 kts 110°
2026-05-07 19:09 51.15733 13.97027 1768 ft 102 kts 131°
2026-05-07 19:09 51.15241 13.97556 1685 ft 72 kts 164°
2026-05-07 19:09 51.14847 13.97855 1491 ft 51 kts 113°
2026-05-07 19:10 51.14892 13.98231 1157 ft 27 kts 33°
2026-05-07 19:10 51.15085 13.98360 1047 ft 30 kts 46°
2026-05-07 19:10 51.15123 13.98445 929 ft 4 kts 133°
2026-05-07 19:10 51.15115 13.98439 918 ft 0 kts 133°
2026-05-07 19:17 51.15091 13.98440 1004 ft 16 kts 184°
2026-05-07 19:17 51.14927 13.98031 1249 ft 57 kts 234°
2026-05-07 19:17 51.14661 13.97292 1365 ft 97 kts 237°
2026-05-07 19:17 51.14235 13.96390 1481 ft 104 kts 230°
2026-05-07 19:18 51.13706 13.95582 1629 ft 105 kts 221°
2026-05-07 19:18 51.13136 13.94902 1865 ft 99 kts 224°
2026-05-07 19:18 51.12651 13.94048 1913 ft 111 kts 236°
2026-05-07 19:18 51.12261 13.92976 1925 ft 115 kts 248°
2026-05-07 19:19 51.11986 13.91751 1939 ft 117 kts 256°
2026-05-07 19:19 51.11762 13.90498 1962 ft 119 kts 256°
2026-05-07 19:19 51.11507 13.89240 1969 ft 120 kts 255°
2026-05-07 19:19 51.11237 13.87991 2011 ft 119 kts 254°
2026-05-07 19:20 51.10963 13.86756 2060 ft 118 kts 253°
2026-05-07 19:20 51.10717 13.85559 2192 ft 111 kts 256°
2026-05-07 19:20 51.10496 13.84430 2393 ft 103 kts 256°
2026-05-07 19:20 51.10283 13.83375 2593 ft 97 kts 256°
2026-05-07 19:21 51.10015 13.82369 2630 ft 111 kts 244°
2026-05-07 19:21 51.09493 13.81202 2294 ft 137 kts 228°
2026-05-07 19:21 51.08762 13.80197 2117 ft 139 kts 217°
2026-05-07 19:21 51.07973 13.79340 1944 ft 135 kts 216°
2026-05-07 19:22 51.07210 13.78512 1800 ft 131 kts 216°
2026-05-07 19:22 51.06505 13.77658 1687 ft 128 kts 223°
2026-05-07 19:22 51.05901 13.76671 1588 ft 117 kts 234°
2026-05-07 19:22 51.05526 13.75657 1568 ft 98 kts 252°
2026-05-07 19:23 51.05399 13.74693 1586 ft 82 kts 275°
2026-05-07 19:23 51.05507 13.73889 1609 ft 69 kts 302°
2026-05-07 19:23 51.05770 13.73318 1483 ft 62 kts 308°
2026-05-07 19:23 51.05929 13.72779 1292 ft 36 kts 281°
2026-05-07 19:24 51.05874 13.72489 1004 ft 16 kts 253°
2026-05-07 19:24 51.05859 13.72432 433 ft 15 kts 359°
2026-05-07 19:24 51.05823 13.72422 406 ft 14 kts 322°
2026-05-07 19:24 51.05918 13.72259 604 ft 78 kts 294°
2026-05-07 19:25 51.06000 13.71937 550 ft 22 kts 200°
2026-05-07 19:25 51.05856 13.71874 504 ft 11 kts 161°
2026-05-07 19:25 51.05816 13.71888 457 ft 2 kts 72°
2026-05-07 19:25 51.05816 13.71892 422 ft 0 kts 67°